Time;durP1;ratioP1;P1;durP2;ratioP2;P2;SDS_P1;SDS_P2;PMS_P1;PMS_P2;Temp;Humidity;BMP_temperature;BMP_pressure;BME280_temperature;BME280_humidity;BME280_pressure;Samples;Min_cycle;Max_cycle;Signal;HPM_P1;HPM_P2
2022/11/07 00:02:10;;;;;;;0.20;0.10;;;;;;;;;;4985733;28;20045;-85
2022/11/07 00:04:36;;;;;;;0.20;0.13;;;;;;;;;;5005018;28;20090;-86
2022/11/07 00:09:57;;;;;;;0.20;0.10;;;;;;;;;;4999247;28;20165;-83
2022/11/07 00:12:27;;;;;;;0.20;0.10;;;;;;;;;;4986515;28;20042;-85
2022/11/07 00:14:53;;;;;;;0.20;0.10;;;;;;;;;;4992743;28;20125;-86
2022/11/07 00:17:25;;;;;;;0.20;0.10;;;;;;;;;;4989280;28;20056;-84
2022/11/07 00:19:51;;;;;;;0.20;0.10;;;;;;;;;;4990370;28;20785;-83
2022/11/07 00:22:17;;;;;;;0.20;0.10;;;;;;;;;;4991805;28;20113;-83
2022/11/07 00:24:43;;;;;;;0.20;0.10;;;;;;;;;;5006577;28;20056;-82
2022/11/07 00:27:09;;;;;;;0.20;0.10;;;;;;;;;;4995089;28;20030;-82
2022/11/07 00:29:38;;;;;;;0.20;0.10;;;;;;;;;;5007818;28;20042;-86
2022/11/07 00:32:07;;;;;;;0.20;0.10;;;;;;;;;;4994966;28;20041;-85
2022/11/07 00:34:35;;;;;;;0.20;0.10;;;;;;;;;;5009706;28;20055;-85
2022/11/07 00:37:04;;;;;;;0.55;0.55;;;;;;;;;;4993374;28;20045;-87
2022/11/07 00:39:33;;;;;;;0.20;0.10;;;;;;;;;;5008968;28;20040;-86
2022/11/07 00:41:59;;;;;;;0.20;0.10;;;;;;;;;;5002464;28;20472;-87
2022/11/07 00:44:25;;;;;;;0.20;0.10;;;;;;;;;;4992912;28;20511;-86
2022/11/07 00:46:54;;;;;;;0.20;0.00;;;;;;;;;;4972561;28;20037;-86
2022/11/07 00:49:33;;;;;;;0.20;0.20;;;;;;;;;;4974635;28;20052;-86
2022/11/07 00:52:02;;;;;;;0.20;0.10;;;;;;;;;;5001733;28;20122;-89
2022/11/07 00:54:28;;;;;;;0.20;0.10;;;;;;;;;;5006688;28;20052;-88
2022/11/07 00:56:56;;;;;;;0.20;0.10;;;;;;;;;;4990126;28;20037;-85
2022/11/07 00:59:22;;;;;;;0.20;0.10;;;;;;;;;;4989381;28;20672;-83
2022/11/07 01:01:48;;;;;;;0.20;0.10;;;;;;;;;;4987289;28;20079;-84
2022/11/07 01:07:02;;;;;;;0.20;0.10;;;;;;;;;;5004306;28;20175;-86
2022/11/07 01:09:31;;;;;;;0.20;0.10;;;;;;;;;;4990820;28;20041;-86
2022/11/07 01:11:57;;;;;;;0.20;0.10;;;;;;;;;;4992242;28;20037;-83
2022/11/07 01:14:24;;;;;;;0.20;0.10;;;;;;;;;;4986488;28;20522;-82
2022/11/07 01:16:50;;;;;;;0.20;0.10;;;;;;;;;;4988584;28;20463;-85
2022/11/07 01:19:16;;;;;;;0.20;0.10;;;;;;;;;;4987693;28;20033;-85
2022/11/07 01:21:43;;;;;;;0.20;0.10;;;;;;;;;;4970808;28;20141;-81
2022/11/07 01:24:15;;;;;;;0.20;0.10;;;;;;;;;;4989611;28;20091;-88
2022/11/07 01:26:42;;;;;;;0.20;0.10;;;;;;;;;;5019858;28;20125;-87
2022/11/07 01:29:09;;;;;;;0.43;0.43;;;;;;;;;;4991138;28;20095;-84
2022/11/07 01:31:35;;;;;;;0.20;0.20;;;;;;;;;;5018406;28;20041;-85
2022/11/07 01:34:04;;;;;;;0.20;0.10;;;;;;;;;;4987555;28;20045;-84
2022/11/07 01:36:30;;;;;;;0.20;0.10;;;;;;;;;;4987208;28;20123;-85
2022/11/07 01:38:56;;;;;;;0.20;0.20;;;;;;;;;;5008811;28;20041;-82
2022/11/07 01:41:24;;;;;;;0.20;0.10;;;;;;;;;;5004592;28;20095;-85
2022/11/07 01:43:52;;;;;;;0.20;0.10;;;;;;;;;;4989219;28;20597;-86
2022/11/07 01:46:19;;;;;;;0.55;0.30;;;;;;;;;;5002399;28;20029;-86
2022/11/07 01:49:05;;;;;;;0.20;0.10;;;;;;;;;;4993518;28;20046;-87
2022/11/07 01:51:33;;;;;;;0.20;0.10;;;;;;;;;;5002683;28;20038;-84
2022/11/07 01:53:59;;;;;;;0.20;0.10;;;;;;;;;;4989877;28;20128;-84
2022/11/07 01:56:27;;;;;;;0.68;0.68;;;;;;;;;;5004430;28;20059;-87
2022/11/07 01:58:54;;;;;;;0.20;0.20;;;;;;;;;;4993968;28;20068;-85
2022/11/07 02:01:29;;;;;;;0.20;0.10;;;;;;;;;;4987012;28;20511;-85
2022/11/07 02:04:01;;;;;;;0.20;0.17;;;;;;;;;;5002675;28;20040;-87
2022/11/07 02:06:33;;;;;;;;;;;;;;;;;;4988571;28;20106;-86
2022/11/07 02:09:02;;;;;;;0.20;0.10;;;;;;;;;;5002008;28;19921;-84
2022/11/07 02:11:28;;;;;;;0.20;0.10;;;;;;;;;;4985795;28;20041;-85
2022/11/07 02:13:54;;;;;;;0.20;0.10;;;;;;;;;;4985180;28;20662;-84
2022/11/07 02:16:23;;;;;;;0.20;0.13;;;;;;;;;;4987627;28;20463;-84
2022/11/07 02:18:49;;;;;;;0.20;0.10;;;;;;;;;;5003588;28;20037;-86
2022/11/07 02:21:25;;;;;;;0.20;0.10;;;;;;;;;;4994578;28;20076;-85
2022/11/07 02:24:03;;;;;;;0.20;0.10;;;;;;;;;;4982643;28;20225;-82
2022/11/07 02:26:34;;;;;;;0.20;0.10;;;;;;;;;;5000893;28;20533;-85
2022/11/07 02:29:00;;;;;;;0.20;0.10;;;;;;;;;;4980736;28;20049;-85
2022/11/07 02:31:26;;;;;;;0.20;0.10;;;;;;;;;;4980919;28;21396;-87
2022/11/07 02:33:52;;;;;;;0.20;0.10;;;;;;;;;;4986536;28;20042;-86
2022/11/07 02:36:21;;;;;;;0.20;0.10;;;;;;;;;;5000457;28;20069;-84
2022/11/07 02:39:01;;;;;;;0.20;0.10;;;;;;;;;;4981177;28;20743;-84
2022/11/07 02:41:33;;;;;;;0.20;0.10;;;;;;;;;;4983510;28;20605;-85
2022/11/07 02:44:01;;;;;;;0.40;0.20;;;;;;;;;;4999655;28;20034;-86
2022/11/07 02:46:33;;;;;;;0.20;0.10;;;;;;;;;;4998773;28;20129;-85
2022/11/07 02:49:00;;;;;;;0.20;0.10;;;;;;;;;;4985098;28;20049;-89
2022/11/07 02:51:26;;;;;;;0.20;0.10;;;;;;;;;;4984738;28;20057;-85
2022/11/07 02:53:58;;;;;;;0.20;0.10;;;;;;;;;;4986592;28;20152;-86
2022/11/07 02:56:24;;;;;;;0.20;0.10;;;;;;;;;;4984973;28;20558;-84
2022/11/07 02:58:58;;;;;;;0.20;0.10;;;;;;;;;;4997968;28;20111;-86
2022/11/07 03:01:24;;;;;;;0.20;0.10;;;;;;;;;;4979847;28;20046;-88
2022/11/07 03:03:51;;;;;;;0.20;0.10;;;;;;;;;;4985634;28;20510;-86
2022/11/07 03:06:19;;;;;;;0.20;0.10;;;;;;;;;;4981972;28;20068;-84
2022/11/07 03:08:45;;;;;;;0.20;0.10;;;;;;;;;;4982909;28;20053;-86
2022/11/07 03:11:12;;;;;;;0.20;0.10;;;;;;;;;;4996301;28;21287;-85
2022/11/07 03:13:44;;;;;;;0.20;0.10;;;;;;;;;;4980017;28;20055;-83
2022/11/07 03:16:13;;;;;;;0.20;0.20;;;;;;;;;;4977221;28;20614;-84
2022/11/07 03:18:45;;;;;;;0.20;0.10;;;;;;;;;;5015722;28;20570;-86
2022/11/07 03:21:14;;;;;;;0.20;0.10;;;;;;;;;;4996880;28;21048;-86
2022/11/07 03:23:40;;;;;;;1.60;1.50;;;;;;;;;;4987363;28;20110;-83
2022/11/07 03:26:06;;;;;;;0.20;0.10;;;;;;;;;;4983380;28;20041;-83
2022/11/07 03:28:35;;;;;;;0.20;0.10;;;;;;;;;;4996493;28;20033;-84
2022/11/07 03:31:02;;;;;;;0.20;0.10;;;;;;;;;;5019798;23;20500;-79
2022/11/07 03:33:28;;;;;;;3.50;2.40;;;;;;;;;;4980476;28;20504;-81
2022/11/07 03:35:54;;;;;;;0.30;0.20;;;;;;;;;;5002236;28;20041;-81
2022/11/07 03:38:21;;;;;;;0.20;0.10;;;;;;;;;;5000803;28;20033;-80
2022/11/07 03:40:47;;;;;;;0.32;0.30;;;;;;;;;;4994730;28;20129;-80
2022/11/07 03:43:13;;;;;;;0.20;0.10;;;;;;;;;;4986791;28;20053;-80
2022/11/07 03:45:39;;;;;;;0.20;0.10;;;;;;;;;;4965012;28;20690;-79
2022/11/07 03:48:05;;;;;;;0.20;0.10;;;;;;;;;;4967963;28;20038;-80
2022/11/07 03:50:31;;;;;;;0.20;0.10;;;;;;;;;;4968235;28;20440;-78
2022/11/07 03:52:57;;;;;;;0.25;0.10;;;;;;;;;;4986689;28;20595;-78
2022/11/07 03:55:23;;;;;;;0.43;0.20;;;;;;;;;;4972961;28;20100;-79
2022/11/07 03:57:49;;;;;;;0.20;0.10;;;;;;;;;;4965438;28;20101;-80
2022/11/07 04:00:16;;;;;;;0.20;0.00;;;;;;;;;;4987020;28;20050;-79
2022/11/07 04:02:42;;;;;;;1.10;0.85;;;;;;;;;;4985834;28;20049;-78
2022/11/07 04:05:09;;;;;;;0.40;0.30;;;;;;;;;;4984862;28;20061;-80
2022/11/07 04:07:35;;;;;;;0.20;0.10;;;;;;;;;;4952948;28;20042;-80
2022/11/07 04:10:01;;;;;;;0.20;0.10;;;;;;;;;;4966515;28;20157;-78
2022/11/07 04:17:59;;;;;;;0.20;0.10;;;;;;;;;;5005491;28;20048;-79
2022/11/07 04:20:26;;;;;;;0.20;0.10;;;;;;;;;;4989001;28;20488;-78
2022/11/07 04:22:52;;;;;;;0.20;0.10;;;;;;;;;;4972697;28;20045;-82
2022/11/07 04:27:41;;;;;;;0.20;0.10;;;;;;;;;;4974896;28;20049;-79
2022/11/07 04:28:04;;;;;;;0.20;0.10;;;;;;;;;;4987611;28;20050;-77
2022/11/07 04:30:30;;;;;;;0.20;0.10;;;;;;;;;;4985937;28;21738;-80
2022/11/07 04:32:58;;;;;;;0.20;0.10;;;;;;;;;;4959331;28;20101;-80
2022/11/07 04:35:26;;;;;;;0.20;0.10;;;;;;;;;;4968293;28;22673;-79
2022/11/07 04:37:52;;;;;;;0.20;0.10;;;;;;;;;;4990224;28;20129;-80
2022/11/07 04:40:18;;;;;;;0.20;0.10;;;;;;;;;;4969631;28;20040;-79
2022/11/07 04:42:45;;;;;;;0.20;0.10;;;;;;;;;;4996565;28;20037;-79
2022/11/07 04:45:12;;;;;;;0.20;0.10;;;;;;;;;;4986404;28;20088;-77
2022/11/07 04:47:38;;;;;;;0.20;0.10;;;;;;;;;;4988489;28;20053;-80
2022/11/07 04:50:05;;;;;;;0.20;0.00;;;;;;;;;;4983457;28;20048;-81
2022/11/07 04:52:31;;;;;;;0.20;0.10;;;;;;;;;;4985286;28;20049;-82
2022/11/07 04:54:57;;;;;;;0.20;0.10;;;;;;;;;;4986944;28;20117;-80
2022/11/07 04:57:24;;;;;;;0.20;0.10;;;;;;;;;;4997735;28;20041;-79
2022/11/07 04:59:50;;;;;;;0.20;0.00;;;;;;;;;;5002496;28;20038;-79
2022/11/07 05:02:16;;;;;;;0.20;0.10;;;;;;;;;;4953097;28;20046;-79
2022/11/07 05:04:42;;;;;;;1.65;1.55;;;;;;;;;;4981425;28;20030;-79
2022/11/07 05:07:08;;;;;;;0.20;0.00;;;;;;;;;;4982410;28;22087;-80
2022/11/07 05:09:34;;;;;;;0.20;0.10;;;;;;;;;;4966137;28;20165;-80
2022/11/07 05:12:01;;;;;;;0.20;0.10;;;;;;;;;;4983298;28;20053;-81
2022/11/07 05:14:30;;;;;;;0.20;0.10;;;;;;;;;;4962913;28;20041;-78
2022/11/07 05:16:56;;;;;;;0.20;0.10;;;;;;;;;;4976887;28;20037;-79
2022/11/07 05:19:22;;;;;;;0.20;0.10;;;;;;;;;;4983647;28;20046;-78
2022/11/07 05:24:33;;;;;;;0.20;0.10;;;;;;;;;;4967160;28;20074;-81
2022/11/07 05:26:59;;;;;;;0.20;0.10;;;;;;;;;;4982118;28;20033;-80
2022/11/07 05:29:25;;;;;;;0.20;0.10;;;;;;;;;;4970408;28;20046;-80
2022/11/07 05:31:51;;;;;;;0.30;0.28;;;;;;;;;;4997745;28;20096;-83
2022/11/07 05:34:17;;;;;;;0.38;0.30;;;;;;;;;;4967074;28;20042;-79
2022/11/07 05:36:43;;;;;;;0.20;0.10;;;;;;;;;;4964476;28;20050;-79
2022/11/07 05:39:09;;;;;;;0.20;0.10;;;;;;;;;;4978838;28;20117;-80
2022/11/07 05:41:35;;;;;;;0.20;0.10;;;;;;;;;;4972622;28;20247;-79
2022/11/07 05:44:01;;;;;;;0.20;0.10;;;;;;;;;;4962819;28;20042;-81
2022/11/07 05:46:27;;;;;;;0.20;0.10;;;;;;;;;;4971124;28;20052;-80
2022/11/07 05:48:53;;;;;;;0.20;0.10;;;;;;;;;;4988404;28;20049;-80
2022/11/07 05:51:19;;;;;;;0.20;0.10;;;;;;;;;;4960293;28;20037;-80
2022/11/07 05:53:45;;;;;;;0.20;0.10;;;;;;;;;;4976613;28;20073;-79
2022/11/07 05:56:11;;;;;;;0.20;0.10;;;;;;;;;;4956889;28;20042;-80
2022/11/07 05:58:37;;;;;;;0.20;0.10;;;;;;;;;;4959005;28;20052;-81
2022/11/07 06:01:05;;;;;;;0.20;0.10;;;;;;;;;;4961886;28;20036;-79
2022/11/07 06:03:31;;;;;;;0.20;0.10;;;;;;;;;;4964818;28;20049;-80
2022/11/07 06:05:57;;;;;;;0.20;0.10;;;;;;;;;;4981897;28;20048;-78
2022/11/07 06:08:23;;;;;;;0.80;0.30;;;;;;;;;;4977579;28;20045;-80
2022/11/07 06:10:49;;;;;;;0.20;0.10;;;;;;;;;;4983120;28;20073;-81
2022/11/07 06:13:16;;;;;;;0.20;0.10;;;;;;;;;;4969881;28;20049;-78
2022/11/07 06:15:43;;;;;;;0.20;0.10;;;;;;;;;;4985651;28;20046;-78
2022/11/07 06:18:14;;;;;;;0.20;0.10;;;;;;;;;;4987161;28;20290;-79
2022/11/07 06:20:40;;;;;;;0.20;0.10;;;;;;;;;;4969878;28;20038;-79
2022/11/07 06:23:06;;;;;;;0.20;0.10;;;;;;;;;;4954155;28;20038;-79
2022/11/07 06:25:33;;;;;;;0.20;0.10;;;;;;;;;;4973653;28;20060;-81
2022/11/07 06:28:00;;;;;;;0.20;0.10;;;;;;;;;;5002233;28;20045;-78
2022/11/07 06:30:26;;;;;;;0.20;0.10;;;;;;;;;;4997957;28;20042;-80
2022/11/07 06:32:52;;;;;;;0.20;0.10;;;;;;;;;;4967622;28;20040;-78
2022/11/07 06:35:18;;;;;;;0.20;0.20;;;;;;;;;;4968501;28;20137;-81
2022/11/07 06:37:44;;;;;;;0.30;0.20;;;;;;;;;;4969513;28;20136;-77
2022/11/07 06:40:11;;;;;;;0.20;0.10;;;;;;;;;;4978362;28;20045;-81
2022/11/07 06:42:37;;;;;;;0.20;0.10;;;;;;;;;;4975633;28;20037;-79
2022/11/07 06:45:03;;;;;;;0.25;0.10;;;;;;;;;;4977662;28;20397;-78
2022/11/07 06:47:30;;;;;;;0.20;0.10;;;;;;;;;;4976839;28;20408;-81
2022/11/07 06:49:56;;;;;;;0.30;0.20;;;;;;;;;;4958407;28;20038;-80
2022/11/07 06:52:22;;;;;;;0.20;0.17;;;;;;;;;;4956066;28;20049;-77
2022/11/07 06:54:48;;;;;;;0.20;0.10;;;;;;;;;;4975492;28;20075;-80
2022/11/07 06:57:14;;;;;;;0.20;0.10;;;;;;;;;;4960904;28;20141;-80
2022/11/07 06:59:40;;;;;;;0.20;0.10;;;;;;;;;;4985158;28;20127;-80
2022/11/07 07:02:07;;;;;;;0.20;0.10;;;;;;;;;;4966610;28;20061;-79
2022/11/07 07:04:33;;;;;;;0.20;0.20;;;;;;;;;;4982572;28;20049;-81
2022/11/07 07:06:59;;;;;;;0.20;0.10;;;;;;;;;;4984005;28;20042;-79
2022/11/07 07:09:25;;;;;;;0.20;0.10;;;;;;;;;;4953325;28;20104;-81
2022/11/07 07:11:51;;;;;;;0.20;0.10;;;;;;;;;;4965582;28;20041;-80
2022/11/07 07:14:17;;;;;;;0.20;0.10;;;;;;;;;;4966743;28;20352;-79
2022/11/07 07:16:46;;;;;;;0.20;0.10;;;;;;;;;;4949029;28;20045;-81
2022/11/07 07:19:25;;;;;;;0.20;0.10;;;;;;;;;;4966762;28;20116;-80
2022/11/07 07:21:51;;;;;;;0.20;0.10;;;;;;;;;;4961125;28;20053;-79
2022/11/07 07:24:17;;;;;;;0.20;0.10;;;;;;;;;;4959083;28;20112;-82
2022/11/07 07:26:43;;;;;;;0.20;0.10;;;;;;;;;;4967174;28;20349;-81
2022/11/07 07:29:09;;;;;;;0.20;0.10;;;;;;;;;;4983890;28;20049;-79
2022/11/07 07:31:35;;;;;;;0.20;0.10;;;;;;;;;;4982742;28;20591;-80
2022/11/07 07:34:01;;;;;;;0.20;0.10;;;;;;;;;;4985746;28;20310;-80
2022/11/07 07:36:28;;;;;;;0.20;0.10;;;;;;;;;;4964864;28;20416;-79
2022/11/07 07:38:54;;;;;;;0.20;0.10;;;;;;;;;;4967984;28;20042;-81
2022/11/07 07:41:20;;;;;;;0.20;0.10;;;;;;;;;;4984633;28;20030;-80
2022/11/07 07:43:46;;;;;;;0.20;0.10;;;;;;;;;;4969775;28;20038;-78
2022/11/07 07:46:15;;;;;;;0.20;0.10;;;;;;;;;;4999021;28;20054;-80
2022/11/07 07:48:41;;;;;;;0.20;0.10;;;;;;;;;;4983255;28;20072;-81
2022/11/07 07:51:07;;;;;;;0.20;0.10;;;;;;;;;;4983531;28;20037;-82
2022/11/07 07:53:33;;;;;;;0.20;0.10;;;;;;;;;;4967171;28;20037;-79
2022/11/07 07:56:01;;;;;;;0.20;0.10;;;;;;;;;;4961092;28;20513;-80
2022/11/07 07:58:27;;;;;;;0.20;0.10;;;;;;;;;;4956846;28;20046;-80
2022/11/07 08:00:56;;;;;;;0.20;0.10;;;;;;;;;;4973773;28;20045;-80
2022/11/07 08:03:22;;;;;;;0.20;0.10;;;;;;;;;;4961567;28;20049;-79
2022/11/07 08:05:53;;;;;;;0.20;0.10;;;;;;;;;;4963409;28;20400;-79
2022/11/07 08:08:19;;;;;;;0.20;0.10;;;;;;;;;;4963755;28;20038;-81
2022/11/07 08:10:45;;;;;;;0.20;0.10;;;;;;;;;;4979282;28;20153;-80
2022/11/07 08:13:11;;;;;;;0.20;0.10;;;;;;;;;;4963494;28;20505;-80
2022/11/07 08:15:37;;;;;;;0.20;0.10;;;;;;;;;;4978516;28;20156;-79
2022/11/07 08:18:04;;;;;;;0.20;0.10;;;;;;;;;;4978550;28;20053;-80
2022/11/07 08:20:30;;;;;;;0.20;0.10;;;;;;;;;;4961722;28;20033;-79
2022/11/07 08:23:03;;;;;;;0.20;0.10;;;;;;;;;;4980707;28;20143;-80
2022/11/07 08:25:29;;;;;;;0.20;0.10;;;;;;;;;;4980473;28;20038;-79
2022/11/07 08:27:55;;;;;;;0.20;0.10;;;;;;;;;;4978441;28;20072;-79
2022/11/07 08:30:21;;;;;;;0.20;0.10;;;;;;;;;;4977912;28;20037;-80
2022/11/07 08:32:47;;;;;;;0.20;0.10;;;;;;;;;;4980396;28;20132;-81
2022/11/07 08:35:13;;;;;;;0.20;0.10;;;;;;;;;;4977472;28;20061;-77
2022/11/07 08:37:39;;;;;;;0.20;0.10;;;;;;;;;;4967610;28;20461;-82
2022/11/07 08:40:05;;;;;;;0.20;0.10;;;;;;;;;;4962192;28;20058;-81
2022/11/07 08:42:31;;;;;;;0.30;0.20;;;;;;;;;;4972420;28;20156;-80
2022/11/07 08:44:57;;;;;;;0.20;0.10;;;;;;;;;;4984155;28;20050;-79
2022/11/07 08:47:23;;;;;;;0.20;0.10;;;;;;;;;;5001982;28;20052;-80
2022/11/07 08:49:50;;;;;;;0.20;0.17;;;;;;;;;;4986866;28;20048;-80
2022/11/07 08:52:16;;;;;;;0.20;0.10;;;;;;;;;;5001249;28;20057;-80
2022/11/07 08:54:42;;;;;;;0.20;0.10;;;;;;;;;;4988104;28;20508;-77
2022/11/07 08:57:09;;;;;;;0.20;0.10;;;;;;;;;;4986986;28;20286;-80
2022/11/07 08:59:35;;;;;;;0.20;0.10;;;;;;;;;;5001331;28;20049;-80
2022/11/07 09:02:02;;;;;;;0.20;0.10;;;;;;;;;;5000239;28;20151;-77
2022/11/07 09:04:28;;;;;;;0.20;0.00;;;;;;;;;;4973540;28;20060;-82
2022/11/07 09:06:56;;;;;;;0.20;0.10;;;;;;;;;;4985156;28;21422;-81
2022/11/07 09:09:22;;;;;;;0.20;0.10;;;;;;;;;;4986272;28;20401;-80
2022/11/07 09:11:48;;;;;;;0.63;0.17;;;;;;;;;;4984205;28;20053;-82
2022/11/07 09:14:14;;;;;;;0.30;0.30;;;;;;;;;;4984809;28;20042;-80
2022/11/07 09:16:40;;;;;;;0.75;0.10;;;;;;;;;;4986097;28;20034;-79
2022/11/07 09:19:06;;;;;;;0.20;0.10;;;;;;;;;;4986345;28;20046;-80
2022/11/07 09:21:32;;;;;;;0.20;0.13;;;;;;;;;;4986967;28;21954;-82
2022/11/07 09:23:58;;;;;;;0.20;0.10;;;;;;;;;;4966681;28;20488;-78
2022/11/07 09:26:25;;;;;;;0.20;0.10;;;;;;;;;;4986291;28;20069;-78
2022/11/07 09:28:51;;;;;;;0.20;0.10;;;;;;;;;;5000880;28;20123;-81
2022/11/07 09:31:19;;;;;;;0.20;0.10;;;;;;;;;;5071472;23;20081;-87
2022/11/07 09:33:48;;;;;;;0.30;0.28;;;;;;;;;;5040757;28;20104;-86
2022/11/07 09:36:14;;;;;;;0.20;0.10;;;;;;;;;;5040832;28;20149;-82
2022/11/07 09:38:43;;;;;;;0.20;0.10;;;;;;;;;;5026712;28;20106;-86
2022/11/07 09:41:32;;;;;;;0.20;0.10;;;;;;;;;;5034167;28;20055;-85
2022/11/07 09:44:08;;;;;;;0.20;0.10;;;;;;;;;;5043222;28;20120;-86
2022/11/07 09:46:37;;;;;;;0.20;0.10;;;;;;;;;;5037829;28;20044;-86
2022/11/07 09:49:14;;;;;;;0.20;0.10;;;;;;;;;;5026746;28;20041;-84
2022/11/07 09:51:43;;;;;;;0.20;0.10;;;;;;;;;;5023573;28;20127;-84
2022/11/07 09:54:12;;;;;;;0.20;0.10;;;;;;;;;;5028564;28;20037;-86
2022/11/07 09:56:43;;;;;;;0.20;0.10;;;;;;;;;;5026135;28;20041;-85
2022/11/07 09:59:23;;;;;;;0.20;0.10;;;;;;;;;;5025701;28;20044;-87
2022/11/07 10:01:52;;;;;;;0.20;0.00;;;;;;;;;;5025013;28;20047;-87
2022/11/07 10:04:23;;;;;;;0.20;0.20;;;;;;;;;;5009860;28;20055;-84
2022/11/07 10:07:14;;;;;;;0.52;0.52;;;;;;;;;;5039052;28;20127;-86
2022/11/07 10:09:48;;;;;;;0.20;0.10;;;;;;;;;;5038627;28;20040;-82
2022/11/07 10:12:20;;;;;;;0.20;0.10;;;;;;;;;;5025062;28;20070;-86
2022/11/07 10:14:58;;;;;;;0.20;0.10;;;;;;;;;;5027182;28;20033;-82
2022/11/07 10:17:35;;;;;;;0.20;0.10;;;;;;;;;;5035700;28;20044;-83
2022/11/07 10:20:10;;;;;;;0.20;0.10;;;;;;;;;;5016185;28;20049;-87
2022/11/07 10:22:40;;;;;;;0.20;0.10;;;;;;;;;;5030307;28;20036;-85
2022/11/07 10:25:20;;;;;;;0.20;0.10;;;;;;;;;;5043249;28;20596;-85
2022/11/07 10:28:07;;;;;;;0.20;0.00;;;;;;;;;;5023313;28;20483;-86
2022/11/07 10:30:34;;;;;;;0.20;0.10;;;;;;;;;;5032650;28;20036;-84
2022/11/07 10:33:18;;;;;;;0.20;0.10;;;;;;;;;;5022886;28;20056;-86
2022/11/07 10:35:52;;;;;;;0.20;0.13;;;;;;;;;;5036925;28;20086;-86
2022/11/07 10:38:31;;;;;;;0.20;0.10;;;;;;;;;;5023915;28;20035;-84
2022/11/07 10:40:57;;;;;;;0.20;0.10;;;;;;;;;;5054456;28;20526;-86
2022/11/07 10:43:34;;;;;;;0.20;0.10;;;;;;;;;;5037807;28;20032;-88
2022/11/07 10:46:11;;;;;;;0.20;0.10;;;;;;;;;;5039438;28;20223;-85
2022/11/07 10:48:37;;;;;;;0.20;0.10;;;;;;;;;;5025843;28;20063;-86
2022/11/07 10:51:08;;;;;;;0.20;0.20;;;;;;;;;;5022179;28;20037;-88
2022/11/07 10:53:42;;;;;;;0.20;0.10;;;;;;;;;;5038219;28;20442;-87
2022/11/07 10:56:09;;;;;;;0.20;0.10;;;;;;;;;;5036945;28;20073;-86
2022/11/07 10:58:43;;;;;;;0.20;0.00;;;;;;;;;;5038298;28;20047;-85
2022/11/07 11:01:10;;;;;;;0.20;0.10;;;;;;;;;;5022040;28;20044;-88
2022/11/07 11:03:48;;;;;;;0.20;0.10;;;;;;;;;;5033692;28;20479;-90
2022/11/07 11:06:25;;;;;;;0.20;0.10;;;;;;;;;;5036947;28;20040;-85
2022/11/07 11:08:51;;;;;;;0.20;0.10;;;;;;;;;;5035300;28;20075;-83
2022/11/07 11:11:21;;;;;;;0.20;0.00;;;;;;;;;;5021188;28;20044;-83
2022/11/07 11:13:48;;;;;;;0.20;0.10;;;;;;;;;;5055449;28;20041;-87
2022/11/07 11:16:16;;;;;;;0.20;0.05;;;;;;;;;;5023220;28;20048;-86
2022/11/07 11:18:54;;;;;;;0.20;0.10;;;;;;;;;;5044365;28;20098;-86
2022/11/07 11:21:37;;;;;;;0.20;0.10;;;;;;;;;;5042768;28;21402;-87
2022/11/07 11:24:55;;;;;;;;;;;;;;;;;;;;;
2022/11/07 11:27:25;;;;;;;0.20;0.10;;;;;;;;;;5057969;28;20102;-87
2022/11/07 11:30:00;;;;;;;0.20;0.10;;;;;;;;;;5027706;28;20037;-89
2022/11/07 11:32:30;;;;;;;0.20;0.17;;;;;;;;;;5024665;28;20051;-84
2022/11/07 11:34:59;;;;;;;0.20;0.10;;;;;;;;;;5024637;28;20075;-87
2022/11/07 11:37:26;;;;;;;0.20;0.10;;;;;;;;;;5036823;28;20032;-86
2022/11/07 11:39:58;;;;;;;0.32;0.28;;;;;;;;;;5023731;28;21767;-88
2022/11/07 11:42:27;;;;;;;0.20;0.10;;;;;;;;;;5036817;28;20041;-88
2022/11/07 11:44:56;;;;;;;0.20;0.10;;;;;;;;;;5033479;28;20512;-84
2022/11/07 11:47:30;;;;;;;0.20;0.10;;;;;;;;;;5018795;28;20044;-87
2022/11/07 11:50:09;;;;;;;0.20;0.10;;;;;;;;;;5035050;28;20049;-89
2022/11/07 11:52:41;;;;;;;0.20;0.10;;;;;;;;;;5036075;28;20041;-81
2022/11/07 11:55:14;;;;;;;0.20;0.00;;;;;;;;;;5042815;28;20048;-83
2022/11/07 11:57:57;;;;;;;0.20;0.10;;;;;;;;;;5019330;28;20044;-88
2022/11/07 12:00:26;;;;;;;0.20;0.10;;;;;;;;;;5027853;28;20040;-87
2022/11/07 12:02:58;;;;;;;0.20;0.10;;;;;;;;;;5023454;28;20037;-89
2022/11/07 12:05:24;;;;;;;0.20;0.10;;;;;;;;;;5039548;28;20043;-86
2022/11/07 12:07:53;;;;;;;0.20;0.10;;;;;;;;;;5033165;28;20507;-83
2022/11/07 12:10:38;;;;;;;0.20;0.10;;;;;;;;;;5043259;28;20055;-82
2022/11/07 12:13:16;;;;;;;0.20;0.10;;;;;;;;;;5028061;28;20059;-84
2022/11/07 12:15:45;;;;;;;0.20;0.10;;;;;;;;;;5027650;28;20063;-82
2022/11/07 12:18:24;;;;;;;0.20;0.10;;;;;;;;;;5026087;28;20040;-87
2022/11/07 12:20:58;;;;;;;0.25;0.25;;;;;;;;;;5027772;28;20036;-87
2022/11/07 12:23:24;;;;;;;0.20;0.10;;;;;;;;;;5045189;28;20056;-84
2022/11/07 12:25:55;;;;;;;0.20;0.10;;;;;;;;;;5030314;28;20051;-86
2022/11/07 12:28:27;;;;;;;0.20;0.00;;;;;;;;;;5039305;28;20786;-86
2022/11/07 12:31:25;;;;;;;0.20;0.10;;;;;;;;;;5037401;28;20044;-83
2022/11/07 12:33:51;;;;;;;0.28;0.28;;;;;;;;;;5015393;28;20044;-89
2022/11/07 12:36:44;;;;;;;0.20;0.10;;;;;;;;;;5022180;28;20743;-83
2022/11/07 12:39:29;;;;;;;0.20;0.10;;;;;;;;;;5055899;28;20048;-86
2022/11/07 12:42:04;;;;;;;0.20;0.10;;;;;;;;;;5043226;28;20051;-83
2022/11/07 12:44:56;;;;;;;0.20;0.10;;;;;;;;;;5055114;28;20178;-87
2022/11/07 12:47:48;;;;;;;0.20;0.10;;;;;;;;;;5055939;28;20072;-83
2022/11/07 12:50:23;;;;;;;0.20;0.10;;;;;;;;;;5041999;28;20491;-90
2022/11/07 12:53:06;;;;;;;0.20;0.10;;;;;;;;;;5043082;28;20510;-88
2022/11/07 12:55:38;;;;;;;0.35;0.15;;;;;;;;;;5041217;28;20033;-87
2022/11/07 12:58:12;;;;;;;0.20;0.10;;;;;;;;;;5037814;28;20037;-86
2022/11/07 13:00:38;;;;;;;0.20;0.10;;;;;;;;;;5037993;28;20067;-83
2022/11/07 13:03:31;;;;;;;0.20;0.10;;;;;;;;;;5024491;28;20044;-84
2022/11/07 13:06:03;;;;;;;0.20;0.03;;;;;;;;;;5007776;28;20064;-85
2022/11/07 13:08:33;;;;;;;0.43;0.20;;;;;;;;;;5039013;28;20048;-84
2022/11/07 13:11:26;;;;;;;0.20;0.00;;;;;;;;;;5035496;28;20059;-85
2022/11/07 13:14:11;;;;;;;0.20;0.10;;;;;;;;;;5037028;28;20118;-86
2022/11/07 13:16:37;;;;;;;0.20;0.10;;;;;;;;;;5024117;28;20048;-85
2022/11/07 13:19:29;;;;;;;0.20;0.10;;;;;;;;;;5022968;28;20052;-88
2022/11/07 13:22:18;;;;;;;0.20;0.10;;;;;;;;;;5021403;28;20055;-86
2022/11/07 13:24:51;;;;;;;0.28;0.25;;;;;;;;;;5022358;28;20044;-87
2022/11/07 13:27:24;;;;;;;1.10;0.93;;;;;;;;;;5021236;28;20545;-88
2022/11/07 13:29:50;;;;;;;0.20;0.10;;;;;;;;;;5022867;28;20201;-83
2022/11/07 13:32:16;;;;;;;0.20;0.10;;;;;;;;;;5041044;28;20048;-84
2022/11/07 13:34:45;;;;;;;0.82;0.25;;;;;;;;;;5033444;28;20051;-86
2022/11/07 13:37:26;;;;;;;0.20;0.10;;;;;;;;;;5038649;28;20442;-83
2022/11/07 13:39:54;;;;;;;0.20;0.10;;;;;;;;;;5037427;28;20130;-85
2022/11/07 13:42:22;;;;;;;0.20;0.10;;;;;;;;;;5022663;28;20037;-86
2022/11/07 13:44:53;;;;;;;0.20;0.10;;;;;;;;;;5023661;28;20067;-86
2022/11/07 13:47:22;;;;;;;0.20;0.10;;;;;;;;;;5022684;28;20502;-87
2022/11/07 13:49:51;;;;;;;0.20;0.10;;;;;;;;;;5023736;28;20032;-90
2022/11/07 13:52:27;;;;;;;0.20;0.10;;;;;;;;;;5021631;28;20060;-85
2022/11/07 13:55:00;;;;;;;0.20;0.10;;;;;;;;;;5033612;28;20044;-87
2022/11/07 13:57:45;;;;;;;0.20;0.10;;;;;;;;;;5037594;28;20055;-85
2022/11/07 14:00:15;;;;;;;0.20;0.10;;;;;;;;;;5035996;28;20427;-88
2022/11/07 14:02:57;;;;;;;0.20;0.00;;;;;;;;;;5033940;28;20041;-86
2022/11/07 14:05:28;;;;;;;0.50;0.28;;;;;;;;;;5018544;28;20487;-84
2022/11/07 14:08:01;;;;;;;0.20;0.10;;;;;;;;;;5033610;28;20536;-85
2022/11/07 14:10:46;;;;;;;0.20;0.10;;;;;;;;;;5019573;28;20040;-87
2022/11/07 14:13:22;;;;;;;0.20;0.10;;;;;;;;;;5033780;28;20028;-86
2022/11/07 14:15:54;;;;;;;0.20;0.10;;;;;;;;;;5052639;28;20178;-88
2022/11/07 14:18:21;;;;;;;0.20;0.10;;;;;;;;;;5023996;28;20417;-90
2022/11/07 14:20:54;;;;;;;0.20;0.10;;;;;;;;;;5036139;28;20036;-85
2022/11/07 14:23:21;;;;;;;0.20;0.10;;;;;;;;;;5027156;28;20366;-86
2022/11/07 14:25:55;;;;;;;0.20;0.10;;;;;;;;;;5034394;28;20041;-86
2022/11/07 14:28:24;;;;;;;0.20;0.10;;;;;;;;;;5023441;28;20487;-86
2022/11/07 14:30:52;;;;;;;0.20;0.03;;;;;;;;;;5039417;28;20048;-86
2022/11/07 14:33:20;;;;;;;0.20;0.10;;;;;;;;;;5023147;28;20128;-85
2022/11/07 14:35:50;;;;;;;0.20;0.20;;;;;;;;;;5040379;28;20040;-90
2022/11/07 14:38:21;;;;;;;0.20;0.10;;;;;;;;;;5027352;28;20462;-87
2022/11/07 14:40:47;;;;;;;0.20;0.00;;;;;;;;;;5055829;28;20036;-85
2022/11/07 14:43:23;;;;;;;0.25;0.15;;;;;;;;;;5035237;28;20071;-88
2022/11/07 14:46:00;;;;;;;0.20;0.10;;;;;;;;;;5058690;28;20032;-85
2022/11/07 14:48:29;;;;;;;0.20;0.10;;;;;;;;;;5038234;28;20051;-85
2022/11/07 14:50:57;;;;;;;0.20;0.10;;;;;;;;;;5029952;28;20032;-85
2022/11/07 14:53:41;;;;;;;0.20;0.10;;;;;;;;;;5041835;28;20039;-84
2022/11/07 14:56:10;;;;;;;0.20;0.10;;;;;;;;;;5028984;28;20045;-85
2022/11/07 14:58:36;;;;;;;0.20;0.10;;;;;;;;;;5026238;28;20157;-84
2022/11/07 15:01:05;;;;;;;0.20;0.10;;;;;;;;;;5039630;28;20096;-87
2022/11/07 15:03:32;;;;;;;0.20;0.10;;;;;;;;;;5040614;28;20029;-86
2022/11/07 15:05:58;;;;;;;0.20;0.10;;;;;;;;;;5028604;28;20037;-86
2022/11/07 15:08:35;;;;;;;0.20;0.10;;;;;;;;;;5040399;28;20097;-83
2022/11/07 15:11:06;;;;;;;0.20;0.10;;;;;;;;;;5036396;28;20044;-86
2022/11/07 15:13:33;;;;;;;0.20;0.03;;;;;;;;;;5028466;28;20091;-89